Jacky L O'neal — WDG3892 — position and weather

sailwx.info

Track history (hours):
 
Tides and Currents Weather Stations Pressure Air Temp Water Temp Dewpoint Dewpoint Depression Visibility Wind Speed Wind Dir Waves Ship Positions

Jacky L O'neal

Owner: American Commercial Lines LLC, Jeffersonville, IN. More information available from US FCC via Universal Licensing System and Coast Guard Vessel Documentation Center.

Last reported at 2017-Oct-09 01:32 UTC. Time now 2017-Oct-18 18:21 UTC.
Position N 32°45' W 091°09'.
Warning: this ship's position is 9 days out of date.

Length 55 m; draft 3.4 m.

Type: Towing. MMSI: 367530760.

Date/timePositionNaut miles runAvg speedWind from/ knotsBaromVisibWave heightAir tempDewpointWater temp
2017-Oct-09 01:32N 32°45' W 091°09'5 2.3
2017-Oct-08 23:13N 32°40' W 091°07'1 4.5
2017-Oct-08 23:00N 32°40' W 091°08'2 3.6
2017-Oct-08 22:30N 32°39' W 091°09'2 3.9
2017-Oct-08 22:00N 32°37' W 091°09'1 1.4
2017-Oct-08 21:30N 32°36' W 091°09'0 0.0
2017-Oct-08 21:00N 32°36' W 091°09'1 1.8
2017-Oct-08 20:30N 32°35' W 091°08'2 4.3
2017-Oct-08 20:00N 32°34' W 091°06'2 3.9
2017-Oct-08 19:30N 32°32' W 091°06'0 0.8
2017-Oct-08 18:58N 32°32' W 091°06'2 3.7
2017-Oct-08 18:30N 32°30' W 091°07'2 4.4
2017-Oct-08 18:00N 32°28' W 091°06'2 4.3
2017-Oct-08 17:30N 32°27' W 091°04'2 4.1
2017-Oct-08 17:00N 32°26' W 091°02'2 3.9
2017-Oct-08 16:30N 32°25' W 090°60'2 3.5
2017-Oct-08 16:00N 32°23' W 090°60'2 4.3
2017-Oct-08 15:30N 32°21' W 090°59'2 4.8
2017-Oct-08 15:00N 32°21' W 090°57'2 4.2
2017-Oct-08 14:30N 32°20' W 090°54'2 4.4
2017-Oct-08 14:00N 32°18' W 090°55'2 3.5
2017-Oct-08 13:30N 32°17' W 090°57'2 3.6
2017-Oct-08 13:00N 32°16' W 090°58'2 4.1
2017-Oct-08 12:30N 32°14' W 090°59'3 5.0
2017-Oct-08 12:00N 32°11' W 090°60'2 4.2
2017-Oct-08 11:30N 32°09' W 091°00'2 4.4
2017-Oct-08 11:00N 32°07' W 091°01'4 2.5
2017-Oct-08 09:26N 32°08' W 091°06'2 3.9
2017-Oct-08 09:00N 32°06' W 091°06'4 4.4
2017-Oct-08 08:08N 32°03' W 091°03'1 4.0
2017-Oct-08 08:00N 32°03' W 091°03'1 2.8
2017-Oct-08 07:29N 32°02' W 091°04'0 0.2
2017-Oct-08 06:44N 32°01' W 091°04'1 4.8
2017-Oct-08 06:29N 32°00' W 091°05'5 3.7
2017-Oct-08 05:03N 31°59' W 091°11'0 4.3
2017-Oct-08 04:57N 31°58' W 091°11'2 4.1
2017-Oct-08 04:29N 31°56' W 091°12'3 3.0
2017-Oct-08 03:37N 31°54' W 091°12'  
2017-Oct-04 17:51N 31°59' W 091°08'3 7.9
2017-Oct-04 17:29N 31°60' W 091°05'6 7.0
2017-Oct-04 16:41N 32°05' W 091°05'1 7.7
2017-Oct-04 16:30N 32°06' W 091°06'2 4.8
2017-Oct-04 16:00N 32°08' W 091°04'3 6.5
2017-Oct-04 15:30N 32°09' W 091°00'4 8.2
2017-Oct-04 15:00N 32°13' W 090°59'4 7.9
2017-Oct-04 14:30N 32°17' W 090°57'4 7.5
2017-Oct-04 14:00N 32°19' W 090°54'3 5.8
2017-Oct-04 13:30N 32°21' W 090°57'3 6.2
2017-Oct-04 13:00N 32°22' W 091°00'3 6.8
2017-Oct-04 12:30N 32°26' W 091°01'4 7.9
2017-Oct-04 12:00N 32°27' W 091°05'5 7.2
2017-Oct-04 11:21N 32°32' W 091°06'3 8.1
2017-Oct-04 11:00N 32°35' W 091°07'4 8.0
2017-Oct-04 10:30N 32°38' W 091°09'8 8.2
2017-Oct-04 09:35N 32°44' W 091°03'1 8.0
2017-Oct-04 09:29N 32°44' W 091°04'4 7.9
2017-Oct-04 08:58N 32°45' W 091°09'  
Track history (hours):
 
Tides and Currents Weather Stations Pressure Air Temp Water Temp Dewpoint Dewpoint Depression Visibility Wind Speed Wind Dir Waves Ship Positions

Jacky L O'neal

Owner: American Commercial Lines LLC, Jeffersonville, IN. More information available from US FCC via Universal Licensing System and Coast Guard Vessel Documentation Center.

Last reported at 2017-Oct-09 01:32 UTC. Time now 2017-Oct-18 18:21 UTC.
Position N 32°45' W 091°09'.
Warning: this ship's position is 9 days out of date.

Length 55 m; draft 3.4 m.

Type: Towing. MMSI: 367530760.

Date/timePositionNaut miles runAvg speedWind from/ knotsBaromVisibWave heightAir tempDewpointWater temp
2017-Oct-09 01:32N 32°45' W 091°09'5 2.3
2017-Oct-08 23:13N 32°40' W 091°07'1 4.5
2017-Oct-08 23:00N 32°40' W 091°08'2 3.6
2017-Oct-08 22:30N 32°39' W 091°09'2 3.9
2017-Oct-08 22:00N 32°37' W 091°09'1 1.4
2017-Oct-08 21:30N 32°36' W 091°09'0 0.0
2017-Oct-08 21:00N 32°36' W 091°09'1 1.8
2017-Oct-08 20:30N 32°35' W 091°08'2 4.3
2017-Oct-08 20:00N 32°34' W 091°06'2 3.9
2017-Oct-08 19:30N 32°32' W 091°06'0 0.8
2017-Oct-08 18:58N 32°32' W 091°06'2 3.7
2017-Oct-08 18:30N 32°30' W 091°07'2 4.4
2017-Oct-08 18:00N 32°28' W 091°06'2 4.3
2017-Oct-08 17:30N 32°27' W 091°04'2 4.1
2017-Oct-08 17:00N 32°26' W 091°02'2 3.9
2017-Oct-08 16:30N 32°25' W 090°60'2 3.5
2017-Oct-08 16:00N 32°23' W 090°60'2 4.3
2017-Oct-08 15:30N 32°21' W 090°59'2 4.8
2017-Oct-08 15:00N 32°21' W 090°57'2 4.2
2017-Oct-08 14:30N 32°20' W 090°54'2 4.4
2017-Oct-08 14:00N 32°18' W 090°55'2 3.5
2017-Oct-08 13:30N 32°17' W 090°57'2 3.6
2017-Oct-08 13:00N 32°16' W 090°58'2 4.1
2017-Oct-08 12:30N 32°14' W 090°59'3 5.0
2017-Oct-08 12:00N 32°11' W 090°60'2 4.2
2017-Oct-08 11:30N 32°09' W 091°00'2 4.4
2017-Oct-08 11:00N 32°07' W 091°01'4 2.5
2017-Oct-08 09:26N 32°08' W 091°06'2 3.9
2017-Oct-08 09:00N 32°06' W 091°06'4 4.4
2017-Oct-08 08:08N 32°03' W 091°03'1 4.0
2017-Oct-08 08:00N 32°03' W 091°03'1 2.8
2017-Oct-08 07:29N 32°02' W 091°04'0 0.2
2017-Oct-08 06:44N 32°01' W 091°04'1 4.8
2017-Oct-08 06:29N 32°00' W 091°05'5 3.7
2017-Oct-08 05:03N 31°59' W 091°11'0 4.3
2017-Oct-08 04:57N 31°58' W 091°11'2 4.1
2017-Oct-08 04:29N 31°56' W 091°12'3 3.0
2017-Oct-08 03:37N 31°54' W 091°12'  
2017-Oct-04 17:51N 31°59' W 091°08'3 7.9
2017-Oct-04 17:29N 31°60' W 091°05'6 7.0
2017-Oct-04 16:41N 32°05' W 091°05'1 7.7
2017-Oct-04 16:30N 32°06' W 091°06'2 4.8
2017-Oct-04 16:00N 32°08' W 091°04'3 6.5
2017-Oct-04 15:30N 32°09' W 091°00'4 8.2
2017-Oct-04 15:00N 32°13' W 090°59'4 7.9
2017-Oct-04 14:30N 32°17' W 090°57'4 7.5
2017-Oct-04 14:00N 32°19' W 090°54'3 5.8
2017-Oct-04 13:30N 32°21' W 090°57'3 6.2
2017-Oct-04 13:00N 32°22' W 091°00'3 6.8
2017-Oct-04 12:30N 32°26' W 091°01'4 7.9
2017-Oct-04 12:00N 32°27' W 091°05'5 7.2
2017-Oct-04 11:21N 32°32' W 091°06'3 8.1
2017-Oct-04 11:00N 32°35' W 091°07'4 8.0
2017-Oct-04 10:30N 32°38' W 091°09'8 8.2
2017-Oct-04 09:35N 32°44' W 091°03'1 8.0
2017-Oct-04 09:29N 32°44' W 091°04'4 7.9
2017-Oct-04 08:58N 32°45' W 091°09'  

Dump ship's entire track history